Portada
METAR-TAF:

METAR-TAF

Aeroports :

In Aménas, Algèria

latitud: 28-03N, longitud: 009-38E, altitud: 562 m

Observació

L'informe es va fer fa 42 minuts, a les 22:00 UTC
Vent 5 kt del Nord/Nord-Oest
Temperatura 14°C
Humitat 18%
Pressió 1016 hPa
Visibilitat 10 km o més
sense núvols per sota de 1500 mi sense presència de cumulonimbus.

METAR: DAUZ 262200Z 34005KT CAVOK 14/M10 Q1016

Hora: 23:42 (22:42 UTC)

Pronòstic

L'informe es va fer fa 5 hores i 42 minuts, a les 17:00 UTC
Pronòstic vàlid del 26 a les 18 UTC al 27 a les 18 UTC
Vent 8 kt del Oest
Visibilitat 10 km o més
sense núvols per sota de 1500 mi sense presència de cumulonimbus.

TAF: DAUZ 261700Z 2618/2718 26008KT CAVOK

Observacions i pronòstics meteorològics de més de 4000 aeroports (METAR i TAF).

Les estacions disponibles són els punts grocs i vermells al mapa.

Posi el ratolí al punt desitjat per veure el nom de l'estació.

Feu clic per veure les observacions i els pronòstics meteorològics.

Per canviar el mapa: feu clic els botons verds amb una creu de color negre per apropar; al botó verd amb un guió per allunyar la imatge; o en les fletxes verdes per a mapes adjacents.


METAR-TAF: